sensor_id;sensor_type;location;lat;lon;timestamp;pressure;altitude;pressure_sealevel;temperature;humidity
61537;BME280;48695;53.480;-6.300;2023-04-20T00:01:45;102074.94;;;12.55;50.99
61537;BME280;48695;53.480;-6.300;2023-04-20T00:04:11;102080.22;;;12.52;50.81
61537;BME280;48695;53.480;-6.300;2023-04-20T00:06:37;102066.31;;;12.47;51.25
61537;BME280;48695;53.480;-6.300;2023-04-20T00:09:03;102069.81;;;12.43;51.26
61537;BME280;48695;53.480;-6.300;2023-04-20T00:11:29;102068.09;;;12.39;51.05
61537;BME280;48695;53.480;-6.300;2023-04-20T00:13:55;102062.00;;;12.35;51.30
61537;BME280;48695;53.480;-6.300;2023-04-20T00:16:20;102054.19;;;12.31;51.25
61537;BME280;48695;53.480;-6.300;2023-04-20T00:18:46;101982.97;;;11.87;51.32
61537;BME280;48695;53.480;-6.300;2023-04-20T00:21:12;102050.75;;;12.26;51.05
61537;BME280;48695;53.480;-6.300;2023-04-20T00:23:38;102045.53;;;12.23;51.54
61537;BME280;48695;53.480;-6.300;2023-04-20T00:26:03;102046.47;;;12.17;51.49
61537;BME280;48695;53.480;-6.300;2023-04-20T00:28:29;102059.56;;;12.15;51.16
61537;BME280;48695;53.480;-6.300;2023-04-20T00:30:54;102064.81;;;12.12;51.29
61537;BME280;48695;53.480;-6.300;2023-04-20T00:33:20;102021.38;;;11.79;51.14
61537;BME280;48695;53.480;-6.300;2023-04-20T00:35:45;102073.59;;;12.05;51.14
61537;BME280;48695;53.480;-6.300;2023-04-20T00:38:11;102079.72;;;12.01;51.41
61537;BME280;48695;53.480;-6.300;2023-04-20T00:40:36;102074.53;;;11.98;51.17
61537;BME280;48695;53.480;-6.300;2023-04-20T00:43:10;102065.81;;;11.93;51.12
61537;BME280;48695;53.480;-6.300;2023-04-20T00:45:36;102070.19;;;11.91;51.27
61537;BME280;48695;53.480;-6.300;2023-04-20T00:48:01;102063.25;;;11.87;51.96
61537;BME280;48695;53.480;-6.300;2023-04-20T00:50:27;102057.16;;;11.83;51.79
61537;BME280;48695;53.480;-6.300;2023-04-20T00:52:52;102061.50;;;11.80;51.73
61537;BME280;48695;53.480;-6.300;2023-04-20T00:55:19;102051.91;;;11.79;51.61
61537;BME280;48695;53.480;-6.300;2023-04-20T00:57:45;102045.84;;;11.74;51.93
61537;BME280;48695;53.480;-6.300;2023-04-20T01:00:11;102035.38;;;11.70;51.38
61537;BME280;48695;53.480;-6.300;2023-04-20T01:02:36;102037.16;;;11.68;51.07
61537;BME280;48695;53.480;-6.300;2023-04-20T01:05:02;102035.44;;;11.64;51.64
61537;BME280;48695;53.480;-6.300;2023-04-20T01:07:28;102032.84;;;11.61;52.04
61537;BME280;48695;53.480;-6.300;2023-04-20T01:09:54;102037.22;;;11.56;52.18
61537;BME280;48695;53.480;-6.300;2023-04-20T01:12:20;102026.78;;;11.53;52.32
61537;BME280;48695;53.480;-6.300;2023-04-20T01:14:45;102021.53;;;11.50;52.72
61537;BME280;48695;53.480;-6.300;2023-04-20T01:17:11;102015.53;;;11.40;52.73
61537;BME280;48695;53.480;-6.300;2023-04-20T01:19:39;102015.47;;;11.43;53.16
61537;BME280;48695;53.480;-6.300;2023-04-20T01:22:06;102013.78;;;11.41;52.76
61537;BME280;48695;53.480;-6.300;2023-04-20T01:24:32;101989.44;;;11.22;52.96
61537;BME280;48695;53.480;-6.300;2023-04-20T01:26:58;102007.69;;;11.36;53.10
61537;BME280;48695;53.480;-6.300;2023-04-20T01:29:23;102016.44;;;11.32;53.06
61537;BME280;48695;53.480;-6.300;2023-04-20T01:31:48;102013.81;;;11.29;52.66
61537;BME280;48695;53.480;-6.300;2023-04-20T01:34:14;102006.88;;;11.18;52.66
61537;BME280;48695;53.480;-6.300;2023-04-20T01:36:42;102020.78;;;11.25;52.60
61537;BME280;48695;53.480;-6.300;2023-04-20T01:39:07;102019.97;;;11.22;52.40
61537;BME280;48695;53.480;-6.300;2023-04-20T01:41:33;101988.69;;;11.00;52.71
61537;BME280;48695;53.480;-6.300;2023-04-20T01:43:58;102009.53;;;11.15;52.97
61537;BME280;48695;53.480;-6.300;2023-04-20T01:46:24;102013.91;;;11.04;52.78
61537;BME280;48695;53.480;-6.300;2023-04-20T01:48:49;102022.59;;;11.09;52.53
61537;BME280;48695;53.480;-6.300;2023-04-20T01:51:15;102009.59;;;11.00;52.58
61537;BME280;48695;53.480;-6.300;2023-04-20T01:53:40;102011.31;;;11.03;52.41
61537;BME280;48695;53.480;-6.300;2023-04-20T01:56:06;102006.09;;;11.01;52.55
61537;BME280;48695;53.480;-6.300;2023-04-20T01:58:31;102005.25;;;10.96;52.77
61537;BME280;48695;53.480;-6.300;2023-04-20T02:00:56;102000.91;;;10.92;52.59
61537;BME280;48695;53.480;-6.300;2023-04-20T02:03:22;102005.25;;;10.91;52.63
61537;BME280;48695;53.480;-6.300;2023-04-20T02:05:47;102000.88;;;10.89;52.88
61537;BME280;48695;53.480;-6.300;2023-04-20T02:08:13;101992.19;;;10.84;52.94
61537;BME280;48695;53.480;-6.300;2023-04-20T02:10:38;102013.97;;;10.84;52.50
61537;BME280;48695;53.480;-6.300;2023-04-20T02:13:04;102006.16;;;10.80;52.65
61537;BME280;48695;53.480;-6.300;2023-04-20T02:15:29;102010.50;;;10.79;52.83
61537;BME280;48695;53.480;-6.300;2023-04-20T02:17:55;102020.09;;;10.79;52.40
61537;BME280;48695;53.480;-6.300;2023-04-20T02:20:21;102031.44;;;10.76;52.69
61537;BME280;48695;53.480;-6.300;2023-04-20T02:22:47;102027.06;;;10.74;52.85
61537;BME280;48695;53.480;-6.300;2023-04-20T02:25:13;102029.69;;;10.71;52.92
61537;BME280;48695;53.480;-6.300;2023-04-20T02:27:38;102034.03;;;10.69;53.10
61537;BME280;48695;53.480;-6.300;2023-04-20T02:30:04;102021.88;;;10.57;52.97
61537;BME280;48695;53.480;-6.300;2023-04-20T02:32:30;102029.72;;;10.60;52.91
61537;BME280;48695;53.480;-6.300;2023-04-20T02:34:56;102022.72;;;10.59;52.69
61537;BME280;48695;53.480;-6.300;2023-04-20T02:37:21;102036.69;;;10.59;53.33
61537;BME280;48695;53.480;-6.300;2023-04-20T02:39:46;102034.06;;;10.56;53.23
61537;BME280;48695;53.480;-6.300;2023-04-20T02:42:12;102039.28;;;10.53;53.13
61537;BME280;48695;53.480;-6.300;2023-04-20T02:44:37;102038.44;;;10.51;53.56
61537;BME280;48695;53.480;-6.300;2023-04-20T02:47:03;102021.03;;;10.39;53.34
61537;BME280;48695;53.480;-6.300;2023-04-20T02:49:28;102048.00;;;10.46;53.45
61537;BME280;48695;53.480;-6.300;2023-04-20T02:51:53;102044.53;;;10.44;53.67
61537;BME280;48695;53.480;-6.300;2023-04-20T02:54:19;102038.41;;;10.39;53.82
61537;BME280;48695;53.480;-6.300;2023-04-20T02:56:45;102016.69;;;10.25;54.12
61537;BME280;48695;53.480;-6.300;2023-04-20T02:59:10;102040.19;;;10.37;54.14
61537;BME280;48695;53.480;-6.300;2023-04-20T03:01:36;102039.31;;;10.35;53.80
61537;BME280;48695;53.480;-6.300;2023-04-20T03:04:01;102033.22;;;10.33;53.89
61537;BME280;48695;53.480;-6.300;2023-04-20T03:06:27;102032.34;;;10.31;54.24
61537;BME280;48695;53.480;-6.300;2023-04-20T03:08:52;102032.34;;;10.28;54.09
61537;BME280;48695;53.480;-6.300;2023-04-20T03:11:18;102025.38;;;10.27;54.06
61537;BME280;48695;53.480;-6.300;2023-04-20T03:13:43;102026.25;;;10.26;54.31
61537;BME280;48695;53.480;-6.300;2023-04-20T03:16:08;102026.22;;;10.21;54.39
61537;BME280;48695;53.480;-6.300;2023-04-20T03:18:34;102031.44;;;10.23;54.36
61537;BME280;48695;53.480;-6.300;2023-04-20T03:21:00;102031.47;;;10.20;54.04
61537;BME280;48695;53.480;-6.300;2023-04-20T03:23:25;102019.25;;;10.05;54.19
61537;BME280;48695;53.480;-6.300;2023-04-20T03:25:51;102044.47;;;10.13;54.30
61537;BME280;48695;53.480;-6.300;2023-04-20T03:28:16;102047.97;;;10.12;54.20
61537;BME280;48695;53.480;-6.300;2023-04-20T03:30:41;102036.66;;;10.04;54.20
61537;BME280;48695;53.480;-6.300;2023-04-20T03:33:07;102041.88;;;10.07;54.10
61537;BME280;48695;53.480;-6.300;2023-04-20T03:35:33;102047.97;;;10.06;54.55
61537;BME280;48695;53.480;-6.300;2023-04-20T03:37:58;102044.47;;;10.01;54.33
61537;BME280;48695;53.480;-6.300;2023-04-20T03:40:23;102041.88;;;10.00;54.60
61537;BME280;48695;53.480;-6.300;2023-04-20T03:42:49;102044.47;;;9.97;54.67
61537;BME280;48695;53.480;-6.300;2023-04-20T03:45:15;102043.63;;;9.95;54.39
61537;BME280;48695;53.480;-6.300;2023-04-20T03:47:41;102039.25;;;9.92;54.58
61537;BME280;48695;53.480;-6.300;2023-04-20T03:50:07;102044.47;;;9.92;54.46
61537;BME280;48695;53.480;-6.300;2023-04-20T03:52:32;102039.25;;;9.89;54.66
61537;BME280;48695;53.480;-6.300;2023-04-20T03:54:57;102025.31;;;9.87;54.67
61537;BME280;48695;53.480;-6.300;2023-04-20T03:57:23;102020.09;;;9.87;54.76
61537;BME280;48695;53.480;-6.300;2023-04-20T03:59:49;102015.75;;;9.83;54.57
61537;BME280;48695;53.480;-6.300;2023-04-20T04:02:14;102010.53;;;9.81;54.98
61537;BME280;48695;53.480;-6.300;2023-04-20T04:04:40;102010.53;;;9.80;54.70
61537;BME280;48695;53.480;-6.300;2023-04-20T04:07:05;102009.66;;;9.78;55.15
61537;BME280;48695;53.480;-6.300;2023-04-20T04:09:31;102013.13;;;9.77;55.17
61537;BME280;48695;53.480;-6.300;2023-04-20T04:11:56;102006.19;;;9.76;55.26
61537;BME280;48695;53.480;-6.300;2023-04-20T04:14:22;102000.94;;;9.73;54.95
61537;BME280;48695;53.480;-6.300;2023-04-20T04:16:47;101990.50;;;9.73;55.28
61537;BME280;48695;53.480;-6.300;2023-04-20T04:19:12;101982.69;;;9.71;55.30
61537;BME280;48695;53.480;-6.300;2023-04-20T04:21:38;101980.09;;;9.70;55.36
61537;BME280;48695;53.480;-6.300;2023-04-20T04:24:04;101968.78;;;9.63;55.23
61537;BME280;48695;53.480;-6.300;2023-04-20T04:26:29;101979.19;;;9.68;55.21
61537;BME280;48695;53.480;-6.300;2023-04-20T04:28:56;101995.72;;;9.67;55.35
61537;BME280;48695;53.480;-6.300;2023-04-20T04:31:22;101994.00;;;9.66;55.42
61537;BME280;48695;53.480;-6.300;2023-04-20T04:33:47;101980.06;;;9.51;55.13
61537;BME280;48695;53.480;-6.300;2023-04-20T04:36:13;102000.06;;;9.55;54.97
61537;BME280;48695;53.480;-6.300;2023-04-20T04:38:40;102016.59;;;9.64;55.40
61537;BME280;48695;53.480;-6.300;2023-04-20T04:41:09;102001.81;;;9.62;55.06
61537;BME280;48695;53.480;-6.300;2023-04-20T04:43:34;102003.53;;;9.60;55.47
61537;BME280;48695;53.480;-6.300;2023-04-20T04:46:06;101993.97;;;9.62;55.22
61537;BME280;48695;53.480;-6.300;2023-04-20T04:48:34;101993.97;;;9.59;55.00
61537;BME280;48695;53.480;-6.300;2023-04-20T04:50:59;101992.25;;;9.58;55.24
61537;BME280;48695;53.480;-6.300;2023-04-20T04:53:25;101992.22;;;9.55;55.68
61537;BME280;48695;53.480;-6.300;2023-04-20T04:55:50;102000.91;;;9.57;55.68
61537;BME280;48695;53.480;-6.300;2023-04-20T04:58:15;101994.81;;;9.52;55.15
61537;BME280;48695;53.480;-6.300;2023-04-20T05:00:41;102000.06;;;9.55;55.61
61537;BME280;48695;53.480;-6.300;2023-04-20T05:03:06;101980.06;;;9.44;55.68
61537;BME280;48695;53.480;-6.300;2023-04-20T05:05:32;102003.50;;;9.53;55.60
61537;BME280;48695;53.480;-6.300;2023-04-20T05:07:57;101992.19;;;9.48;55.50
61537;BME280;48695;53.480;-6.300;2023-04-20T05:10:22;101995.69;;;9.51;55.41
61537;BME280;48695;53.480;-6.300;2023-04-20T05:12:48;101995.69;;;9.47;55.47
61537;BME280;48695;53.480;-6.300;2023-04-20T05:15:13;101995.72;;;9.48;55.03
61537;BME280;48695;53.480;-6.300;2023-04-20T05:17:39;101994.81;;;9.46;55.92
61537;BME280;48695;53.480;-6.300;2023-04-20T05:20:05;101969.56;;;9.30;55.59
61537;BME280;48695;53.480;-6.300;2023-04-20T05:22:32;101995.69;;;9.45;55.66
61537;BME280;48695;53.480;-6.300;2023-04-20T05:24:57;101989.59;;;9.45;55.61
61537;BME280;48695;53.480;-6.300;2023-04-20T05:27:22;102004.38;;;9.44;55.65
61537;BME280;48695;53.480;-6.300;2023-04-20T05:29:48;101998.31;;;9.44;55.82
61537;BME280;48695;53.480;-6.300;2023-04-20T05:32:13;102001.78;;;9.44;55.63
61537;BME280;48695;53.480;-6.300;2023-04-20T05:34:39;101999.13;;;9.43;55.84
61537;BME280;48695;53.480;-6.300;2023-04-20T05:37:04;101997.44;;;9.43;56.23
61537;BME280;48695;53.480;-6.300;2023-04-20T05:39:30;101999.16;;;9.44;55.84
61537;BME280;48695;53.480;-6.300;2023-04-20T05:41:55;101995.66;;;9.36;56.39
61537;BME280;48695;53.480;-6.300;2023-04-20T05:44:22;101992.22;;;9.43;56.60
61537;BME280;48695;53.480;-6.300;2023-04-20T05:46:47;101995.69;;;9.44;56.56
61537;BME280;48695;53.480;-6.300;2023-04-20T05:49:13;102005.25;;;9.43;56.41
61537;BME280;48695;53.480;-6.300;2023-04-20T05:51:38;102003.50;;;9.44;56.79
61537;BME280;48695;53.480;-6.300;2023-04-20T05:54:04;102013.06;;;9.43;56.51
61537;BME280;48695;53.480;-6.300;2023-04-20T05:56:29;102015.69;;;9.45;56.50
61537;BME280;48695;53.480;-6.300;2023-04-20T05:58:55;102025.25;;;9.44;56.86
61537;BME280;48695;53.480;-6.300;2023-04-20T06:01:21;102017.41;;;9.44;56.70
61537;BME280;48695;53.480;-6.300;2023-04-20T06:03:46;102025.25;;;9.44;56.73
61537;BME280;48695;53.480;-6.300;2023-04-20T06:06:13;102019.16;;;9.45;56.90
61537;BME280;48695;53.480;-6.300;2023-04-20T06:08:39;102018.28;;;9.46;57.02
61537;BME280;48695;53.480;-6.300;2023-04-20T06:11:04;102017.41;;;9.47;56.90
61537;BME280;48695;53.480;-6.300;2023-04-20T06:13:30;102010.47;;;9.49;57.21
61537;BME280;48695;53.480;-6.300;2023-04-20T06:15:55;102008.75;;;9.48;57.53
61537;BME280;48695;53.480;-6.300;2023-04-20T06:18:21;102012.22;;;9.49;57.26
61537;BME280;48695;53.480;-6.300;2023-04-20T06:20:46;102015.69;;;9.52;57.66
61537;BME280;48695;53.480;-6.300;2023-04-20T06:23:12;101954.75;;;9.17;57.87
61537;BME280;48695;53.480;-6.300;2023-04-20T06:25:37;102018.31;;;9.55;57.38
61537;BME280;48695;53.480;-6.300;2023-04-20T06:28:04;102000.03;;;9.43;58.12
61537;BME280;48695;53.480;-6.300;2023-04-20T06:30:29;102020.06;;;9.59;57.41
61537;BME280;48695;53.480;-6.300;2023-04-20T06:32:55;102012.22;;;9.62;57.80
61537;BME280;48695;53.480;-6.300;2023-04-20T06:35:21;101991.38;;;9.53;58.05
61537;BME280;48695;53.480;-6.300;2023-04-20T06:37:47;102005.28;;;9.68;57.81
61537;BME280;48695;53.480;-6.300;2023-04-20T06:40:13;102006.16;;;9.71;57.71
61537;BME280;48695;53.480;-6.300;2023-04-20T06:42:38;102005.31;;;9.74;58.13
61537;BME280;48695;53.480;-6.300;2023-04-20T06:45:07;101997.50;;;9.80;56.78
61537;BME280;48695;53.480;-6.300;2023-04-20T06:47:33;101997.47;;;9.77;57.55
61537;BME280;48695;53.480;-6.300;2023-04-20T06:50:00;102007.94;;;9.86;57.87
61537;BME280;48695;53.480;-6.300;2023-04-20T06:52:26;102013.16;;;9.87;58.01
61537;BME280;48695;53.480;-6.300;2023-04-20T06:54:52;102027.06;;;9.91;57.94
61537;BME280;48695;53.480;-6.300;2023-04-20T06:57:18;102006.22;;;9.83;58.24
61537;BME280;48695;53.480;-6.300;2023-04-20T06:59:43;101977.47;;;9.62;58.20
61537;BME280;48695;53.480;-6.300;2023-04-20T07:02:09;102039.28;;;10.04;58.55
61537;BME280;48695;53.480;-6.300;2023-04-20T07:04:34;102018.38;;;10.07;58.22
61537;BME280;48695;53.480;-6.300;2023-04-20T07:07:00;102009.69;;;10.11;57.97
61537;BME280;48695;53.480;-6.300;2023-04-20T07:09:25;102019.28;;;10.26;58.49
61537;BME280;48695;53.480;-6.300;2023-04-20T07:11:51;102019.31;;;10.31;58.40
61537;BME280;48695;53.480;-6.300;2023-04-20T07:14:16;101955.75;;;10.10;58.42
61537;BME280;48695;53.480;-6.300;2023-04-20T07:16:42;102003.63;;;10.46;58.12
61537;BME280;48695;53.480;-6.300;2023-04-20T07:19:07;101958.38;;;10.30;57.56
61537;BME280;48695;53.480;-6.300;2023-04-20T07:21:33;101997.50;;;10.56;57.93
61537;BME280;48695;53.480;-6.300;2023-04-20T07:23:59;101983.59;;;10.54;58.16
61537;BME280;48695;53.480;-6.300;2023-04-20T07:26:25;102004.44;;;10.67;57.67
61537;BME280;48695;53.480;-6.300;2023-04-20T07:28:50;102001.84;;;10.70;57.42
61537;BME280;48695;53.480;-6.300;2023-04-20T07:31:16;102003.56;;;10.72;57.32
61537;BME280;48695;53.480;-6.300;2023-04-20T07:33:42;101998.31;;;10.74;57.37
61537;BME280;48695;53.480;-6.300;2023-04-20T07:36:08;101999.22;;;10.76;57.56
61537;BME280;48695;53.480;-6.300;2023-04-20T07:38:34;102011.41;;;10.77;57.68
61537;BME280;48695;53.480;-6.300;2023-04-20T07:41:00;102010.50;;;10.79;57.54
61537;BME280;48695;53.480;-6.300;2023-04-20T07:43:25;102003.56;;;10.69;57.46
61537;BME280;48695;53.480;-6.300;2023-04-20T07:45:51;101997.44;;;10.84;57.40
61537;BME280;48695;53.480;-6.300;2023-04-20T07:48:16;101998.28;;;10.87;58.01
61537;BME280;48695;53.480;-6.300;2023-04-20T07:50:42;101993.94;;;10.91;57.91
61537;BME280;48695;53.480;-6.300;2023-04-20T07:53:07;101993.91;;;10.94;57.71
61537;BME280;48695;53.480;-6.300;2023-04-20T07:55:33;102000.00;;;10.98;57.47
61537;BME280;48695;53.480;-6.300;2023-04-20T07:57:58;102006.09;;;11.01;57.69
61537;BME280;48695;53.480;-6.300;2023-04-20T08:00:25;102000.84;;;11.04;57.47
61537;BME280;48695;53.480;-6.300;2023-04-20T08:02:50;102000.84;;;11.07;57.66
61537;BME280;48695;53.480;-6.300;2023-04-20T08:05:16;101983.47;;;11.00;57.87
61537;BME280;48695;53.480;-6.300;2023-04-20T08:07:41;101999.06;;;11.12;57.84
61537;BME280;48695;53.480;-6.300;2023-04-20T08:10:07;101999.06;;;11.15;57.62
61537;BME280;48695;53.480;-6.300;2023-04-20T08:12:33;102007.78;;;11.17;57.03
61537;BME280;48695;53.480;-6.300;2023-04-20T08:14:58;102004.28;;;11.22;57.93
61537;BME280;48695;53.480;-6.300;2023-04-20T08:17:26;102006.84;;;11.25;57.79
61537;BME280;48695;53.480;-6.300;2023-04-20T08:19:52;102003.38;;;11.27;57.80
61537;BME280;48695;53.480;-6.300;2023-04-20T08:22:17;102010.34;;;11.25;57.71
61537;BME280;48695;53.480;-6.300;2023-04-20T08:24:43;102019.88;;;11.34;57.14
61537;BME280;48695;53.480;-6.300;2023-04-20T08:27:08;102013.78;;;11.38;57.38
61537;BME280;48695;53.480;-6.300;2023-04-20T08:29:34;102035.53;;;11.40;57.31
61537;BME280;48695;53.480;-6.300;2023-04-20T08:31:59;102010.28;;;11.40;56.93
61537;BME280;48695;53.480;-6.300;2023-04-20T08:34:25;102012.84;;;11.48;57.16
61537;BME280;48695;53.480;-6.300;2023-04-20T08:36:51;102011.06;;;11.50;57.15
61537;BME280;48695;53.480;-6.300;2023-04-20T08:39:20;102029.34;;;11.59;57.32
61537;BME280;48695;53.480;-6.300;2023-04-20T08:41:48;102038.94;;;11.60;56.66
61537;BME280;48695;53.480;-6.300;2023-04-20T08:44:18;102027.59;;;11.66;57.08
61537;BME280;48695;53.480;-6.300;2023-04-20T08:46:46;102026.63;;;11.75;56.42
61537;BME280;48695;53.480;-6.300;2023-04-20T08:49:14;102019.66;;;11.77;56.58
61537;BME280;48695;53.480;-6.300;2023-04-20T08:51:40;102006.53;;;11.87;56.45
61537;BME280;48695;53.480;-6.300;2023-04-20T08:54:06;102018.53;;;12.14;56.50
61537;BME280;48695;53.480;-6.300;2023-04-20T08:56:34;102024.53;;;12.32;56.32
61537;BME280;48695;53.480;-6.300;2023-04-20T08:59:01;102005.09;;;12.51;55.56
61537;BME280;48695;53.480;-6.300;2023-04-20T09:01:31;102019.81;;;12.66;55.18
61537;BME280;48695;53.480;-6.300;2023-04-20T09:03:58;102007.41;;;12.83;55.38
61537;BME280;48695;53.480;-6.300;2023-04-20T09:06:24;102015.03;;;13.02;55.43
61537;BME280;48695;53.480;-6.300;2023-04-20T09:08:50;102016.59;;;13.19;55.24
61537;BME280;48695;53.480;-6.300;2023-04-20T09:11:25;102000.50;;;13.47;55.25
61537;BME280;48695;53.480;-6.300;2023-04-20T09:14:05;101998.38;;;13.75;54.80
61537;BME280;48695;53.480;-6.300;2023-04-20T09:16:32;102020.00;;;13.91;53.86
61537;BME280;48695;53.480;-6.300;2023-04-20T09:18:58;102022.38;;;14.06;53.66
61537;BME280;48695;53.480;-6.300;2023-04-20T09:21:25;102024.72;;;14.23;53.90
61537;BME280;48695;53.480;-6.300;2023-04-20T09:24:09;102021.69;;;14.49;54.29
61537;BME280;48695;53.480;-6.300;2023-04-20T09:26:35;102027.63;;;14.60;53.34
61537;BME280;48695;53.480;-6.300;2023-04-20T09:29:02;102024.72;;;14.75;52.80
61537;BME280;48695;53.480;-6.300;2023-04-20T09:31:28;102008.00;;;14.78;52.42
61537;BME280;48695;53.480;-6.300;2023-04-20T09:34:00;102020.50;;;15.10;52.52
61537;BME280;48695;53.480;-6.300;2023-04-20T09:39:07;102032.00;;;15.48;51.58
61537;BME280;48695;53.480;-6.300;2023-04-20T09:41:34;102026.50;;;15.58;50.69
61537;BME280;48695;53.480;-6.300;2023-04-20T09:44:01;102003.72;;;15.56;50.03
61537;BME280;48695;53.480;-6.300;2023-04-20T09:46:31;102019.75;;;15.87;50.31
61537;BME280;48695;53.480;-6.300;2023-04-20T09:48:58;101964.06;;;15.65;50.24
61537;BME280;48695;53.480;-6.300;2023-04-20T09:51:28;102002.22;;;16.20;50.71
61537;BME280;48695;53.480;-6.300;2023-04-20T09:53:55;102008.69;;;16.43;50.18
61537;BME280;48695;53.480;-6.300;2023-04-20T09:56:21;102007.84;;;16.75;52.45
61537;BME280;48695;53.480;-6.300;2023-04-20T09:58:46;101996.09;;;16.86;49.74
61537;BME280;48695;53.480;-6.300;2023-04-20T10:01:12;102001.47;;;17.13;49.61
61537;BME280;48695;53.480;-6.300;2023-04-20T10:03:40;102007.59;;;17.45;49.12
61537;BME280;48695;53.480;-6.300;2023-04-20T10:06:20;102004.81;;;17.77;49.77
61537;BME280;48695;53.480;-6.300;2023-04-20T10:08:46;102003.31;;;17.97;47.34
61537;BME280;48695;53.480;-6.300;2023-04-20T10:11:23;101987.44;;;18.23;48.51
61537;BME280;48695;53.480;-6.300;2023-04-20T10:13:49;102002.47;;;18.48;46.95
61537;BME280;48695;53.480;-6.300;2023-04-20T10:16:18;102007.47;;;18.82;46.08
61537;BME280;48695;53.480;-6.300;2023-04-20T10:18:58;102008.13;;;19.12;46.93
61537;BME280;48695;53.480;-6.300;2023-04-20T10:21:25;101993.84;;;19.16;44.71
61537;BME280;48695;53.480;-6.300;2023-04-20T10:23:52;102009.38;;;19.49;43.93
61537;BME280;48695;53.480;-6.300;2023-04-20T10:26:18;102011.25;;;19.68;43.95
61537;BME280;48695;53.480;-6.300;2023-04-20T10:28:44;102003.38;;;19.89;44.22
61537;BME280;48695;53.480;-6.300;2023-04-20T10:31:12;102006.66;;;20.16;43.88
61537;BME280;48695;53.480;-6.300;2023-04-20T10:33:55;101996.34;;;20.51;45.98
61537;BME280;48695;53.480;-6.300;2023-04-20T10:36:30;101990.84;;;20.76;43.08
61537;BME280;48695;53.480;-6.300;2023-04-20T10:38:57;101981.97;;;20.95;42.28
61537;BME280;48695;53.480;-6.300;2023-04-20T10:41:23;101993.91;;;21.24;41.81
61537;BME280;48695;53.480;-6.300;2023-04-20T10:43:48;101978.59;;;21.48;40.58
61537;BME280;48695;53.480;-6.300;2023-04-20T10:46:22;101988.88;;;21.92;43.36
61537;BME280;48695;53.480;-6.300;2023-04-20T10:48:58;101988.19;;;22.06;39.66
61537;BME280;48695;53.480;-6.300;2023-04-20T10:51:28;101986.97;;;22.31;39.80
61537;BME280;48695;53.480;-6.300;2023-04-20T10:54:04;101978.06;;;22.65;40.13
61537;BME280;48695;53.480;-6.300;2023-04-20T10:59:08;101977.41;;;22.94;38.55
61537;BME280;48695;53.480;-6.300;2023-04-20T11:01:34;101969.03;;;23.34;43.84
61537;BME280;48695;53.480;-6.300;2023-04-20T11:03:59;101987.50;;;23.37;36.83
61537;BME280;48695;53.480;-6.300;2023-04-20T11:06:25;101965.84;;;23.43;37.55
61537;BME280;48695;53.480;-6.300;2023-04-20T11:08:52;101975.06;;;23.69;36.47
61537;BME280;48695;53.480;-6.300;2023-04-20T11:11:26;101974.56;;;23.92;37.80
61537;BME280;48695;53.480;-6.300;2023-04-20T11:14:09;101954.97;;;24.07;38.73
61537;BME280;48695;53.480;-6.300;2023-04-20T11:16:35;101967.38;;;24.08;35.60
61537;BME280;48695;53.480;-6.300;2023-04-20T11:19:01;101962.75;;;24.26;35.98
61537;BME280;48695;53.480;-6.300;2023-04-20T11:21:41;101968.63;;;24.62;37.32
61537;BME280;48695;53.480;-6.300;2023-04-20T11:24:19;101970.66;;;24.87;36.87
61537;BME280;48695;53.480;-6.300;2023-04-20T11:26:45;101966.72;;;24.92;34.14
61537;BME280;48695;53.480;-6.300;2023-04-20T11:29:29;101972.41;;;25.29;37.13
61537;BME280;48695;53.480;-6.300;2023-04-20T11:31:54;101967.56;;;25.35;32.62
61537;BME280;48695;53.480;-6.300;2023-04-20T11:34:21;101966.25;;;25.55;32.63
61537;BME280;48695;53.480;-6.300;2023-04-20T11:36:47;101957.81;;;25.76;33.21
61537;BME280;48695;53.480;-6.300;2023-04-20T11:39:24;101961.81;;;26.08;34.28
61537;BME280;48695;53.480;-6.300;2023-04-20T11:41:51;101937.72;;;26.08;32.00
61537;BME280;48695;53.480;-6.300;2023-04-20T11:44:18;101955.91;;;26.43;32.26
61537;BME280;48695;53.480;-6.300;2023-04-20T11:46:48;101953.66;;;26.62;30.64
61537;BME280;48695;53.480;-6.300;2023-04-20T11:49:18;101950.94;;;26.88;30.76
61537;BME280;48695;53.480;-6.300;2023-04-20T11:51:43;101945.34;;;26.91;30.17
61537;BME280;48695;53.480;-6.300;2023-04-20T11:54:09;101944.91;;;27.10;28.27
61537;BME280;48695;53.480;-6.300;2023-04-20T11:56:35;101948.28;;;27.25;29.53
61537;BME280;48695;53.480;-6.300;2023-04-20T11:59:02;101950.81;;;27.39;28.46
61537;BME280;48695;53.480;-6.300;2023-04-20T12:01:28;101929.09;;;27.42;28.35
61537;BME280;48695;53.480;-6.300;2023-04-20T12:03:53;101926.03;;;27.59;28.52
61537;BME280;48695;53.480;-6.300;2023-04-20T12:06:22;101938.56;;;27.72;28.14
61537;BME280;48695;53.480;-6.300;2023-04-20T12:08:47;101934.97;;;27.84;28.82
61537;BME280;48695;53.480;-6.300;2023-04-20T12:11:13;101934.25;;;27.93;27.99
61537;BME280;48695;53.480;-6.300;2023-04-20T12:13:41;101929.13;;;28.01;27.91
61537;BME280;48695;53.480;-6.300;2023-04-20T12:16:07;101915.22;;;28.07;27.56
61537;BME280;48695;53.480;-6.300;2023-04-20T12:18:32;101935.78;;;28.19;27.32
61537;BME280;48695;53.480;-6.300;2023-04-20T12:20:57;101932.47;;;28.27;27.12
61537;BME280;48695;53.480;-6.300;2023-04-20T12:23:24;101939.16;;;28.57;32.78
61537;BME280;48695;53.480;-6.300;2023-04-20T12:25:50;101939.75;;;28.49;27.05
61537;BME280;48695;53.480;-6.300;2023-04-20T12:28:15;101943.31;;;28.50;26.33
61537;BME280;48695;53.480;-6.300;2023-04-20T12:30:40;101942.47;;;28.49;26.90
61537;BME280;48695;53.480;-6.300;2023-04-20T12:33:06;101936.81;;;28.52;26.74
61537;BME280;48695;53.480;-6.300;2023-04-20T12:35:31;101930.94;;;28.58;26.16
61537;BME280;48695;53.480;-6.300;2023-04-20T12:37:57;101930.22;;;28.67;26.56
61537;BME280;48695;53.480;-6.300;2023-04-20T12:40:22;101917.28;;;28.73;25.84
61537;BME280;48695;53.480;-6.300;2023-04-20T12:42:48;101923.25;;;28.76;25.50
61537;BME280;48695;53.480;-6.300;2023-04-20T12:45:13;101930.97;;;28.81;26.03